| Today | Week | Month | Year | Rain Year | ||
|---|---|---|---|---|---|---|
| Outside Temperature | °C |
13.2 12:00:57 AM 12.7 12:15:04 AM |
13.2 12:00:57 AM (Monday) 12.7 12:15:04 AM (Monday) |
22.9 05/02/2026 02:44:55 PM 5.1 05/01/2026 05:45:43 AM |
22.9 05/02/2026 02:44:55 PM -10.9 02/15/2026 07:47:33 AM |
22.9 05/02/2026 02:44:55 PM -10.9 02/15/2026 07:47:33 AM |
| Heat Index | °C |
13.0 12:00:57 AM 12.5 12:15:04 AM |
13.0 12:00:57 AM (Monday) 12.5 12:15:04 AM (Monday) |
22.4 05/02/2026 02:44:55 PM 3.8 05/01/2026 05:45:43 AM |
22.4 05/02/2026 02:44:55 PM -10.9 02/15/2026 07:47:33 AM |
22.4 05/02/2026 02:44:55 PM -10.9 02/15/2026 07:47:33 AM |
| Wind Chill | °C |
13.2 12:00:57 AM 12.7 12:15:04 AM |
13.2 12:00:57 AM (Monday) 12.7 12:15:04 AM (Monday) |
22.9 05/02/2026 02:44:55 PM 5.1 05/01/2026 05:45:43 AM |
22.9 05/02/2026 02:44:55 PM -13.6 02/02/2026 08:52:49 AM |
22.9 05/02/2026 02:44:55 PM -13.6 02/02/2026 08:52:49 AM |
| Dew Point | °C |
12.4 12:00:57 AM 11.9 12:15:04 AM |
12.4 12:00:57 AM (Monday) 11.9 12:15:04 AM (Monday) |
13.3 05/03/2026 03:10:01 PM -1.4 05/01/2026 12:17:27 PM |
13.3 05/03/2026 03:10:01 PM -15.7 02/15/2026 07:47:33 AM |
13.3 05/03/2026 03:10:01 PM -15.7 02/15/2026 07:47:33 AM |
| Outside Humidity | % |
98 02:11:10 AM 95 12:00:57 AM |
98 02:11:10 AM (Monday) 95 12:00:57 AM (Monday) |
98 05/04/2026 02:11:10 AM 24 05/01/2026 12:17:27 PM |
99 01/13/2026 10:41:57 PM 20 04/21/2026 04:59:38 PM |
99 01/13/2026 10:41:57 PM 20 04/21/2026 04:59:38 PM |
| Barometer | mbar |
1007.8 12:00:57 AM 1005.7 02:01:51 AM |
1007.8 12:00:57 AM (Monday) 1005.7 02:01:51 AM (Monday) |
1028.0 05/01/2026 04:29:07 AM 1005.7 05/04/2026 02:01:51 AM |
1030.3 04/08/2026 11:33:36 AM 974.4 01/02/2026 03:47:29 AM |
1030.3 04/08/2026 11:33:36 AM 974.4 01/02/2026 03:47:29 AM |
| Max Wind |
m/s ° |
3.4 -90 02:33:23 AM |
3.4 -90 02:33:23 AM (Monday) |
9.9 225 05/02/2026 06:27:06 PM |
22.8 -90 04/06/2026 02:28:51 PM |
22.8 -90 04/06/2026 02:28:51 PM |
| Average Wind | m/s | 0.5 | 0.5 | 1.4 | 2.6 | 2.6 |
| RMS Wind | m/s | 0.8 | 0.8 | 1.8 | 3.2 | 3.2 |
|
Vector Average Vector Direction |
m/s ° |
0.4 314 |
0.4 314 |
0.5 222 |
0.4 104 |
0.4 104 |
| Rain | mm | 1.2 | 1.2 | 8.4 | 63.3 | 63.3 |
| Rain Rate | mm/h |
7.2 12:00:57 AM |
7.2 12:00:57 AM (Monday) |
22.8 05/03/2026 11:51:53 PM |
22.8 05/03/2026 11:51:53 PM |
22.8 05/03/2026 11:51:53 PM |
| Inside Temperature | °C |
21.9 12:00:57 AM 21.6 01:42:41 AM |
21.9 12:00:57 AM (Monday) 21.6 01:42:41 AM (Monday) |
22.1 05/02/2026 05:58:52 PM 20.9 05/01/2026 03:20:06 AM |
22.1 05/02/2026 05:58:52 PM 18.9 02/07/2026 03:15:29 AM |
22.1 05/02/2026 05:58:52 PM 18.9 02/07/2026 03:15:29 AM |
| Inside Humidity | % |
48 01:08:57 AM 47 12:00:57 AM |
48 01:08:57 AM (Monday) 47 12:00:57 AM (Monday) |
48 05/03/2026 03:14:03 PM 30 05/01/2026 04:55:51 PM |
48 05/03/2026 03:14:03 PM 19 02/02/2026 09:38:14 PM |
48 05/03/2026 03:14:03 PM 19 02/02/2026 09:38:14 PM |
| Latitude | 55° 40.23' N |
| Longitude | 012° 28.13' E |
| Altitude | 14 meters |
| WeeWX | 4.10.2 |